createdAt,value
2019-04-30T00:00:11.009Z,0
2019-04-30T00:01:21.389Z,0
2019-04-30T00:02:10.495Z,0
2019-04-30T00:03:15.836Z,0
2019-04-30T00:04:10.584Z,0
2019-04-30T00:05:15.052Z,0
2019-04-30T00:06:11.663Z,0
2019-04-30T00:07:15.407Z,0
2019-04-30T00:08:10.707Z,0
2019-04-30T00:09:14.964Z,0
2019-04-30T00:10:10.926Z,0
2019-04-30T00:11:15.825Z,0
2019-04-30T00:12:10.175Z,0
2019-04-30T00:13:15.376Z,0
2019-04-30T00:14:10.212Z,0
2019-04-30T00:15:16.050Z,0
2019-04-30T00:16:10.156Z,0
2019-04-30T00:17:15.731Z,0
2019-04-30T00:18:10.047Z,0
2019-04-30T00:19:15.634Z,0
2019-04-30T00:20:10.095Z,0
2019-04-30T00:21:14.993Z,0
2019-04-30T00:22:10.261Z,0
2019-04-30T00:23:10.001Z,0
2019-04-30T00:24:15.917Z,0
2019-04-30T00:25:09.902Z,0
2019-04-30T00:26:19.545Z,0
2019-04-30T00:27:09.709Z,0
2019-04-30T00:28:15.485Z,0
2019-04-30T00:29:09.689Z,0
2019-04-30T00:30:15.422Z,0
2019-04-30T00:31:10.041Z,0
2019-04-30T00:32:12.782Z,0
2019-04-30T00:33:10.591Z,0
2019-04-30T00:34:09.897Z,0
2019-04-30T00:35:16.049Z,0
2019-04-30T00:36:09.574Z,0
2019-04-30T00:37:18.742Z,0
2019-04-30T00:38:09.638Z,0
2019-04-30T00:39:18.841Z,0
2019-04-30T00:40:10.374Z,0
2019-04-30T00:41:15.763Z,0
2019-04-30T00:42:09.498Z,0
2019-04-30T00:43:15.535Z,0
2019-04-30T00:44:10.212Z,0
2019-04-30T00:45:15.421Z,0
2019-04-30T00:46:09.578Z,0
2019-04-30T00:47:15.091Z,0
2019-04-30T00:48:10.580Z,0
2019-04-30T00:49:29.007Z,0
2019-04-30T00:50:09.284Z,0
2019-04-30T00:51:21.255Z,0
2019-04-30T00:52:09.453Z,0
2019-04-30T00:53:20.956Z,0
2019-04-30T00:54:10.007Z,0
2019-04-30T00:55:15.065Z,0
2019-04-30T00:56:10.047Z,0
2019-04-30T00:57:15.125Z,0
2019-04-30T00:58:10.506Z,0
2019-04-30T00:59:15.180Z,0
2019-04-30T01:00:09.622Z,0
2019-04-30T01:01:15.221Z,0
2019-04-30T01:02:10.556Z,0
2019-04-30T01:03:15.381Z,0
2019-04-30T01:04:09.849Z,0
2019-04-30T01:05:15.490Z,0
2019-04-30T01:06:09.955Z,0
2019-04-30T01:07:15.513Z,0
2019-04-30T01:08:10.011Z,0
2019-04-30T01:09:13.552Z,0
2019-04-30T01:10:09.442Z,0
2019-04-30T01:11:15.405Z,0
2019-04-30T01:12:10.338Z,0
2019-04-30T01:13:19.167Z,0
2019-04-30T01:14:09.808Z,0
2019-04-30T01:15:21.190Z,0
2019-04-30T01:16:09.837Z,0
2019-04-30T01:17:15.309Z,0
2019-04-30T01:18:09.308Z,0
2019-04-30T01:19:35.248Z,0
2019-04-30T01:20:09.373Z,0
2019-04-30T01:21:14.409Z,0
2019-04-30T01:22:09.035Z,0
2019-04-30T01:23:14.895Z,0
2019-04-30T01:24:09.030Z,0
2019-04-30T01:25:20.657Z,0
2019-04-30T01:26:08.715Z,0
2019-04-30T01:27:15.429Z,0
2019-04-30T01:28:10.761Z,0
2019-04-30T01:29:10.249Z,0
2019-04-30T01:30:08.834Z,0
2019-04-30T01:31:09.110Z,0
2019-04-30T01:32:20.886Z,0
2019-04-30T01:33:09.100Z,0
2019-04-30T01:34:19.558Z,0
2019-04-30T01:35:08.885Z,0
2019-04-30T01:36:15.706Z,0
2019-04-30T01:37:08.778Z,0
2019-04-30T01:38:15.858Z,0
2019-04-30T01:39:09.421Z,0
2019-04-30T01:40:16.354Z,0
2019-04-30T01:41:09.427Z,0
2019-04-30T01:42:15.984Z,0
2019-04-30T01:43:09.090Z,0
2019-04-30T01:44:15.410Z,0
2019-04-30T01:45:08.904Z,0
2019-04-30T01:46:18.909Z,0
2019-04-30T01:47:08.983Z,0
2019-04-30T01:48:19.280Z,0
2019-04-30T01:49:08.648Z,0
2019-04-30T01:50:11.466Z,0
2019-04-30T01:51:09.035Z,0
2019-04-30T01:52:09.551Z,0
2019-04-30T01:53:18.493Z,0
2019-04-30T01:54:09.230Z,0
2019-04-30T01:55:08.532Z,0
2019-04-30T01:56:09.154Z,0
2019-04-30T01:57:10.620Z,0
2019-04-30T01:58:08.714Z,0
2019-04-30T01:59:09.161Z,0
2019-04-30T02:00:09.713Z,0
2019-04-30T02:01:09.069Z,0
2019-04-30T02:02:08.802Z,0
2019-04-30T02:03:08.726Z,0
2019-04-30T02:04:08.588Z,0
2019-04-30T02:05:08.891Z,0
2019-04-30T02:06:09.109Z,0
2019-04-30T02:07:08.998Z,0
2019-04-30T02:08:08.542Z,0
2019-04-30T02:09:09.162Z,0
2019-04-30T02:10:08.711Z,0
2019-04-30T02:11:09.008Z,0
2019-04-30T02:12:09.349Z,0
2019-04-30T02:13:08.901Z,0
2019-04-30T02:14:08.992Z,0
2019-04-30T02:15:09.461Z,0
2019-04-30T02:16:08.679Z,0
2019-04-30T02:17:09.385Z,0
2019-04-30T02:18:08.699Z,0
2019-04-30T02:19:09.113Z,0
2019-04-30T02:20:08.938Z,0
2019-04-30T02:21:08.942Z,0
2019-04-30T02:22:09.467Z,0
2019-04-30T02:23:09.671Z,0
2019-04-30T02:24:11.105Z,0
2019-04-30T02:25:09.594Z,0
2019-04-30T02:26:08.614Z,0
2019-04-30T02:27:09.121Z,0
2019-04-30T02:28:08.940Z,0
2019-04-30T02:29:09.146Z,0
2019-04-30T02:30:13.529Z,0
2019-04-30T02:31:09.221Z,0
2019-04-30T02:32:10.082Z,0
2019-04-30T02:33:09.542Z,0
2019-04-30T02:34:10.125Z,0
2019-04-30T02:35:09.541Z,0
2019-04-30T02:36:12.850Z,0
2019-04-30T02:37:09.691Z,0
2019-04-30T02:38:09.981Z,0
2019-04-30T02:39:11.040Z,0
2019-04-30T02:40:10.056Z,0
2019-04-30T02:41:09.771Z,0
2019-04-30T02:42:09.605Z,0
2019-04-30T02:43:11.425Z,0
2019-04-30T02:44:09.643Z,0
2019-04-30T02:45:12.474Z,0
2019-04-30T02:46:09.624Z,0
2019-04-30T02:47:10.091Z,0
2019-04-30T02:48:11.221Z,0
2019-04-30T02:49:10.419Z,0
2019-04-30T02:50:29.332Z,0
2019-04-30T02:51:10.039Z,0
2019-04-30T02:52:09.204Z,0
2019-04-30T02:53:12.089Z,0
2019-04-30T02:54:09.715Z,0
2019-04-30T02:55:09.402Z,0
2019-04-30T02:56:12.212Z,0
2019-04-30T02:57:08.243Z,0
2019-04-30T02:58:09.593Z,0
2019-04-30T02:59:12.813Z,0
2019-04-30T03:00:09.869Z,0
2019-04-30T03:01:10.140Z,0
2019-04-30T03:02:11.313Z,0
2019-04-30T03:03:10.211Z,0
2019-04-30T03:04:09.792Z,0
2019-04-30T03:05:10.169Z,0
2019-04-30T03:06:11.377Z,0
2019-04-30T03:07:09.761Z,0
2019-04-30T03:08:09.555Z,0
2019-04-30T03:09:10.265Z,0
2019-04-30T03:10:09.998Z,0
2019-04-30T03:11:09.708Z,0
2019-04-30T03:12:08.716Z,0
2019-04-30T03:13:09.780Z,0
2019-04-30T03:14:10.211Z,0
2019-04-30T03:15:09.886Z,0
2019-04-30T03:16:09.389Z,0
2019-04-30T03:17:10.196Z,0
2019-04-30T03:18:09.844Z,0
2019-04-30T03:19:09.781Z,0
2019-04-30T03:20:28.870Z,0
2019-04-30T03:21:09.746Z,0
2019-04-30T03:22:10.134Z,0
2019-04-30T03:23:12.437Z,0
2019-04-30T03:24:10.442Z,0
2019-04-30T03:25:09.407Z,0
2019-04-30T03:26:09.629Z,0
2019-04-30T03:27:09.610Z,0
2019-04-30T03:28:09.703Z,0
2019-04-30T03:29:10.955Z,0
2019-04-30T03:30:11.696Z,0
2019-04-30T03:31:15.027Z,0
2019-04-30T03:32:15.548Z,0
2019-04-30T03:33:14.651Z,0
2019-04-30T03:34:25.403Z,0
2019-04-30T03:35:15.119Z,0
2019-04-30T03:36:14.695Z,0
2019-04-30T03:37:12.392Z,0
2019-04-30T03:38:09.613Z,0
2019-04-30T03:39:10.610Z,0
2019-04-30T03:40:10.260Z,0
2019-04-30T03:41:09.721Z,0
2019-04-30T03:42:09.895Z,0
2019-04-30T03:43:12.433Z,0
2019-04-30T03:44:34.417Z,0
2019-04-30T03:45:10.092Z,0
2019-04-30T03:46:12.636Z,0
2019-04-30T03:47:10.792Z,0
2019-04-30T03:48:10.121Z,4
2019-04-30T03:49:10.564Z,4
2019-04-30T03:50:09.254Z,4
2019-04-30T03:51:10.550Z,4
2019-04-30T03:52:09.966Z,4
2019-04-30T03:53:10.208Z,4
2019-04-30T03:54:09.964Z,4
2019-04-30T03:55:11.513Z,4
2019-04-30T03:56:09.445Z,4
2019-04-30T03:57:10.644Z,0
2019-04-30T03:58:09.189Z,4
2019-04-30T03:59:10.415Z,4
2019-04-30T04:00:09.373Z,4
2019-04-30T04:01:10.079Z,4
2019-04-30T04:02:09.395Z,4
2019-04-30T04:03:10.056Z,4
2019-04-30T04:04:10.012Z,8
2019-04-30T04:05:10.192Z,8
2019-04-30T04:06:09.385Z,8
2019-04-30T04:07:10.127Z,8
2019-04-30T04:08:09.531Z,8
2019-04-30T04:09:10.214Z,12
2019-04-30T04:10:10.055Z,8
2019-04-30T04:11:10.099Z,12
2019-04-30T04:12:09.602Z,12
2019-04-30T04:13:10.195Z,16
2019-04-30T04:14:09.292Z,16
2019-04-30T04:15:13.009Z,20
2019-04-30T04:16:09.618Z,20
2019-04-30T04:17:09.840Z,24
2019-04-30T04:18:10.336Z,28
2019-04-30T04:19:12.109Z,32
2019-04-30T04:20:10.530Z,32
2019-04-30T04:21:25.094Z,36
2019-04-30T04:22:14.500Z,36
2019-04-30T04:23:09.630Z,36
2019-04-30T04:24:10.410Z,36
2019-04-30T04:25:10.086Z,40
2019-04-30T04:26:09.369Z,44
2019-04-30T04:27:09.658Z,52
2019-04-30T04:28:10.033Z,60
2019-04-30T04:29:09.391Z,68
2019-04-30T04:30:10.555Z,72
2019-04-30T04:31:09.536Z,76
2019-04-30T04:32:10.539Z,72
2019-04-30T04:33:10.176Z,68
2019-04-30T04:34:09.277Z,64
2019-04-30T04:35:09.815Z,60
2019-04-30T04:36:09.140Z,64
2019-04-30T04:37:10.040Z,68
2019-04-30T04:38:12.064Z,72
2019-04-30T04:39:09.782Z,76
2019-04-30T04:40:09.247Z,80
2019-04-30T04:41:12.564Z,88
2019-04-30T04:42:10.064Z,92
2019-04-30T04:43:10.183Z,100
2019-04-30T04:44:09.962Z,104
2019-04-30T04:45:09.829Z,112
2019-04-30T04:46:09.224Z,116
2019-04-30T04:47:09.875Z,124
2019-04-30T04:48:09.524Z,136
2019-04-30T04:49:08.990Z,152
2019-04-30T04:50:10.210Z,160
2019-04-30T04:51:14.469Z,164
2019-04-30T04:52:10.174Z,176
2019-04-30T04:53:11.768Z,184
2019-04-30T04:54:12.573Z,184
2019-04-30T04:55:09.893Z,196
2019-04-30T04:56:09.860Z,196
2019-04-30T04:57:26.091Z,196
2019-04-30T04:58:09.649Z,192
2019-04-30T04:59:10.069Z,188
2019-04-30T05:00:15.251Z,192
2019-04-30T05:01:08.631Z,192
2019-04-30T05:02:09.470Z,192
2019-04-30T05:03:09.421Z,208
2019-04-30T05:04:09.211Z,220
2019-04-30T05:05:09.607Z,224
2019-04-30T05:06:13.959Z,228
2019-04-30T05:07:09.041Z,232
2019-04-30T05:08:08.506Z,236
2019-04-30T05:09:09.672Z,248
2019-04-30T05:10:09.171Z,248
2019-04-30T05:11:09.440Z,252
2019-04-30T05:12:08.512Z,256
2019-04-30T05:13:09.065Z,264
2019-04-30T05:14:08.342Z,268
2019-04-30T05:15:07.277Z,276
2019-04-30T05:16:09.166Z,276
2019-04-30T05:17:09.440Z,276
2019-04-30T05:18:09.099Z,272
2019-04-30T05:19:08.844Z,272
2019-04-30T05:20:06.989Z,264
2019-04-30T05:21:08.793Z,260
2019-04-30T05:22:08.981Z,260
2019-04-30T05:23:09.365Z,260
2019-04-30T05:24:09.029Z,272
2019-04-30T05:25:08.796Z,272
2019-04-30T05:26:08.410Z,284
2019-04-30T05:27:08.818Z,328
2019-04-30T05:28:08.675Z,396
2019-04-30T05:29:09.433Z,452
2019-04-30T05:30:09.627Z,516
2019-04-30T05:31:08.739Z,576
2019-04-30T05:32:09.460Z,600
2019-04-30T05:33:08.802Z,640
2019-04-30T05:34:10.268Z,664
2019-04-30T05:35:07.229Z,672
2019-04-30T05:36:06.938Z,720
2019-04-30T05:37:08.970Z,772
2019-04-30T05:38:09.164Z,780
2019-04-30T05:39:08.657Z,756
2019-04-30T05:40:09.106Z,684
2019-04-30T05:41:07.130Z,632
2019-04-30T05:42:08.770Z,596
2019-04-30T05:43:08.721Z,556
2019-04-30T05:44:08.859Z,500
2019-04-30T05:45:06.870Z,480
2019-04-30T05:46:08.299Z,488
2019-04-30T05:47:08.894Z,492
2019-04-30T05:48:08.836Z,512
2019-04-30T05:49:08.987Z,560
2019-04-30T05:50:08.856Z,612
2019-04-30T05:51:08.695Z,672
2019-04-30T05:52:09.118Z,700
2019-04-30T05:53:06.843Z,728
2019-04-30T05:54:08.897Z,764
2019-04-30T05:55:08.529Z,768
2019-04-30T05:56:11.748Z,724
2019-04-30T05:57:09.379Z,724
2019-04-30T05:58:09.315Z,764
2019-04-30T05:59:08.509Z,888
2019-04-30T06:00:09.286Z,972
2019-04-30T06:01:09.453Z,1080
2019-04-30T06:02:08.816Z,1064
2019-04-30T06:03:07.087Z,1012
2019-04-30T06:04:09.389Z,1008
2019-04-30T06:05:08.701Z,1112
2019-04-30T06:06:08.759Z,1164
2019-04-30T06:07:08.602Z,1236
2019-04-30T06:08:06.762Z,1216
2019-04-30T06:09:33.973Z,1184
2019-04-30T06:10:07.245Z,1196
2019-04-30T06:11:06.991Z,1276
2019-04-30T06:12:10.836Z,1284
2019-04-30T06:13:09.077Z,1304
2019-04-30T06:14:08.643Z,1276
2019-04-30T06:15:08.960Z,1244
2019-04-30T06:16:08.765Z,1300
2019-04-30T06:17:07.221Z,1312
2019-04-30T06:18:20.310Z,1316
2019-04-30T06:19:08.395Z,1368
2019-04-30T06:20:21.014Z,1344
2019-04-30T06:21:06.958Z,1316
2019-04-30T06:22:15.894Z,1360
2019-04-30T06:23:06.973Z,1412
2019-04-30T06:24:08.223Z,1460
2019-04-30T06:25:10.529Z,1448
2019-04-30T06:26:20.658Z,1364
2019-04-30T06:27:10.385Z,1364
2019-04-30T06:28:07.178Z,1480
2019-04-30T06:29:06.670Z,1504
2019-04-30T06:30:06.922Z,1472
2019-04-30T06:31:06.683Z,1468
2019-04-30T06:32:08.619Z,1516
2019-04-30T06:33:09.218Z,1540
2019-04-30T06:34:08.566Z,1620
2019-04-30T06:35:09.077Z,1872
2019-04-30T06:36:08.511Z,2100
2019-04-30T06:37:09.463Z,2020
2019-04-30T06:38:08.546Z,1912
2019-04-30T06:39:08.654Z,1956
2019-04-30T06:40:06.639Z,2000
2019-04-30T06:41:08.591Z,2032
2019-04-30T06:42:19.423Z,1992
2019-04-30T06:43:09.063Z,1900
2019-04-30T06:44:06.610Z,1840
2019-04-30T06:45:09.045Z,1768
2019-04-30T06:46:08.738Z,1708
2019-04-30T06:47:09.059Z,1744
2019-04-30T06:48:08.727Z,1804
2019-04-30T06:49:06.852Z,1880
2019-04-30T06:50:09.635Z,2004
2019-04-30T06:51:06.840Z,1976
2019-04-30T06:52:18.101Z,2060
2019-04-30T06:53:09.285Z,2180
2019-04-30T06:54:08.536Z,2352
2019-04-30T06:55:06.827Z,2444
2019-04-30T06:56:06.556Z,2372
2019-04-30T06:57:09.670Z,2408
2019-04-30T06:58:22.982Z,2648
2019-04-30T06:59:06.791Z,2524
2019-04-30T07:00:07.038Z,2284
2019-04-30T07:01:06.783Z,2096
2019-04-30T07:02:08.993Z,2040
2019-04-30T07:03:09.287Z,2168
2019-04-30T07:04:08.191Z,2284
2019-04-30T07:05:09.795Z,2272
2019-04-30T07:06:08.373Z,2092
2019-04-30T07:07:08.969Z,1936
2019-04-30T07:08:16.665Z,2048
2019-04-30T07:09:08.674Z,1960
2019-04-30T07:10:16.719Z,1928
2019-04-30T07:11:16.222Z,2068
2019-04-30T07:12:09.026Z,2316
2019-04-30T07:13:08.612Z,2300
2019-04-30T07:14:09.487Z,2252
2019-04-30T07:15:08.684Z,2192
2019-04-30T07:16:08.311Z,2016
2019-04-30T07:17:06.473Z,1908
2019-04-30T07:18:08.920Z,1848
2019-04-30T07:19:08.786Z,1708
2019-04-30T07:20:06.491Z,1732
2019-04-30T07:21:08.688Z,1712
2019-04-30T07:22:08.757Z,1656
2019-04-30T07:23:11.548Z,1620
2019-04-30T07:24:06.927Z,1560
2019-04-30T07:25:06.930Z,1480
2019-04-30T07:26:08.914Z,1396
2019-04-30T07:28:19.045Z,1448
2019-04-30T07:29:19.600Z,1464
2019-04-30T07:30:19.188Z,1488
2019-04-30T07:31:23.944Z,1532
2019-04-30T07:32:19.666Z,1648
2019-04-30T07:33:20.657Z,1792
2019-04-30T07:34:19.442Z,1896
2019-04-30T07:35:19.492Z,2036
2019-04-30T07:36:19.503Z,2084
2019-04-30T07:37:31.583Z,2044
2019-04-30T07:38:19.321Z,2012
2019-04-30T07:39:19.177Z,1976
2019-04-30T07:40:18.980Z,1852
2019-04-30T07:41:18.955Z,1804
2019-04-30T07:42:19.181Z,1880
2019-04-30T07:43:18.960Z,1840
2019-04-30T07:44:41.873Z,1752
2019-04-30T07:45:19.380Z,1736
2019-04-30T07:46:19.747Z,1700
2019-04-30T07:47:19.389Z,1688
2019-04-30T07:48:20.455Z,1764
2019-04-30T07:49:20.463Z,1864
2019-04-30T07:50:21.586Z,1944
2019-04-30T07:51:23.717Z,1920
2019-04-30T07:52:23.954Z,1988
2019-04-30T07:53:18.810Z,2052
2019-04-30T07:54:18.921Z,2104
2019-04-30T07:55:19.572Z,2132
2019-04-30T07:56:43.386Z,2168
2019-04-30T07:57:19.223Z,2176
2019-04-30T07:58:22.567Z,2144
2019-04-30T07:59:20.114Z,2076
2019-04-30T08:00:19.177Z,2004
2019-04-30T08:01:19.544Z,1964
2019-04-30T08:02:24.573Z,1976
2019-04-30T08:03:20.408Z,1984
2019-04-30T08:04:18.813Z,1972
2019-04-30T08:05:19.746Z,1964
2019-04-30T08:06:18.873Z,1964
2019-04-30T08:07:19.861Z,1964
2019-04-30T08:08:32.813Z,1960
2019-04-30T08:09:19.564Z,1944
2019-04-30T08:10:18.752Z,1920
2019-04-30T08:11:34.258Z,1924
2019-04-30T08:12:38.745Z,1948
2019-04-30T18:35:28.606Z,256
2019-04-30T18:36:26.099Z,236
2019-04-30T18:37:25.822Z,212
2019-04-30T18:38:24.466Z,196
2019-04-30T18:39:25.572Z,176
2019-04-30T18:40:25.337Z,160
2019-04-30T18:41:26.235Z,144
2019-04-30T18:42:25.900Z,128
2019-04-30T18:43:28.710Z,116
2019-04-30T18:44:26.155Z,100
2019-04-30T18:45:26.297Z,92
2019-04-30T18:46:25.805Z,80
2019-04-30T18:47:26.078Z,72
2019-04-30T18:48:26.646Z,60
2019-04-30T18:49:25.717Z,56
2019-04-30T18:50:24.417Z,48
2019-04-30T18:51:46.571Z,40
2019-04-30T18:52:25.740Z,36
2019-04-30T18:53:25.448Z,28
2019-04-30T18:54:25.813Z,24
2019-04-30T18:55:26.186Z,24
2019-04-30T18:56:26.258Z,20
2019-04-30T18:57:24.371Z,16
2019-04-30T18:58:42.905Z,12
2019-04-30T18:59:24.195Z,12
2019-04-30T19:00:26.612Z,12
2019-04-30T19:01:24.165Z,8
2019-04-30T19:02:23.889Z,8
2019-04-30T19:03:29.265Z,8
2019-04-30T19:04:26.145Z,4
2019-04-30T19:05:24.134Z,4
2019-04-30T19:06:33.831Z,4
2019-04-30T19:07:24.333Z,4
2019-04-30T19:08:24.321Z,4
2019-04-30T19:09:24.276Z,4
2019-04-30T19:10:24.058Z,4
2019-04-30T19:11:25.708Z,0
2019-04-30T19:12:26.087Z,4
2019-04-30T19:13:25.615Z,4
2019-04-30T19:14:26.477Z,4
2019-04-30T19:15:37.145Z,4
2019-04-30T19:16:31.799Z,0
2019-04-30T19:17:26.400Z,0
2019-04-30T19:18:25.179Z,0
2019-04-30T19:19:26.739Z,0
2019-04-30T19:20:25.833Z,0
2019-04-30T19:21:24.634Z,0
2019-04-30T19:22:25.615Z,0
2019-04-30T19:23:26.262Z,0
2019-04-30T19:24:26.927Z,0
2019-04-30T19:25:26.028Z,0
2019-04-30T19:26:29.262Z,0
2019-04-30T19:27:25.570Z,0
2019-04-30T19:28:26.029Z,0
2019-04-30T19:29:24.842Z,0
2019-04-30T19:30:26.081Z,0
2019-04-30T19:31:26.877Z,0
2019-04-30T19:32:25.080Z,0
2019-04-30T19:33:25.056Z,0
2019-04-30T19:34:24.609Z,0
2019-04-30T19:35:25.982Z,0
2019-04-30T19:36:43.156Z,0
2019-04-30T19:37:26.849Z,0
2019-04-30T19:38:25.284Z,0
2019-04-30T19:39:25.927Z,0
2019-04-30T19:40:26.175Z,0
2019-04-30T19:41:25.637Z,0
2019-04-30T19:42:25.929Z,0
2019-04-30T19:43:25.034Z,0
2019-04-30T19:44:29.298Z,0
2019-04-30T19:45:24.792Z,0
2019-04-30T19:46:25.737Z,0
2019-04-30T19:47:26.310Z,0
2019-04-30T19:48:25.081Z,0
2019-04-30T19:49:25.909Z,0
2019-04-30T19:50:26.555Z,0
2019-04-30T19:51:26.963Z,0
2019-04-30T19:52:26.489Z,0
2019-04-30T19:53:30.340Z,0
2019-04-30T19:54:26.425Z,0
2019-04-30T19:55:28.564Z,0
2019-04-30T19:56:29.382Z,0
2019-04-30T19:57:25.812Z,0
2019-04-30T19:59:05.522Z,0
2019-04-30T19:59:26.518Z,0
2019-04-30T20:00:24.464Z,0
2019-04-30T20:01:24.701Z,0
2019-04-30T20:02:29.439Z,0
2019-04-30T20:03:26.730Z,0
2019-04-30T20:04:40.280Z,0
2019-04-30T20:05:28.497Z,0
2019-04-30T20:06:26.056Z,0
2019-04-30T20:07:26.463Z,0
2019-04-30T20:08:28.506Z,0
2019-04-30T20:09:26.091Z,0
2019-04-30T20:10:28.296Z,0
2019-04-30T20:11:24.904Z,0
2019-04-30T20:12:25.986Z,0
2019-04-30T20:13:42.658Z,0
2019-04-30T20:14:25.885Z,0
2019-04-30T20:15:32.141Z,0
2019-04-30T20:16:26.796Z,0
2019-04-30T20:17:26.191Z,0
2019-04-30T20:18:26.027Z,0
2019-04-30T20:19:25.110Z,0
2019-04-30T20:20:25.595Z,0
2019-04-30T20:21:56.031Z,0
2019-04-30T20:22:28.952Z,0
2019-04-30T20:23:24.847Z,0
2019-04-30T20:24:29.491Z,0
2019-04-30T20:25:25.983Z,0
2019-04-30T20:26:24.853Z,0
2019-04-30T20:27:26.209Z,0
2019-04-30T20:28:25.075Z,0
2019-04-30T20:29:25.746Z,0
2019-04-30T20:30:26.269Z,0
2019-04-30T20:31:26.221Z,0
2019-04-30T20:32:40.126Z,0
2019-04-30T20:33:25.732Z,0
2019-04-30T20:34:26.331Z,0
2019-04-30T20:35:25.053Z,0
2019-04-30T20:36:26.248Z,0
2019-04-30T20:37:26.827Z,0
2019-04-30T20:38:26.399Z,0
2019-04-30T20:39:24.775Z,0
2019-04-30T20:40:25.726Z,0
2019-04-30T20:41:25.815Z,0
2019-04-30T20:42:24.760Z,0
2019-04-30T20:43:25.565Z,0
2019-04-30T20:44:25.912Z,0
2019-04-30T20:45:25.798Z,0
2019-04-30T20:46:41.774Z,0
2019-04-30T20:47:29.834Z,0
2019-04-30T20:48:25.777Z,0
2019-04-30T20:49:26.423Z,0
2019-04-30T20:50:24.226Z,0
2019-04-30T20:51:26.577Z,0
2019-04-30T20:52:28.990Z,0
2019-04-30T20:53:26.645Z,0
2019-04-30T20:54:26.170Z,0
2019-04-30T20:55:24.709Z,0
2019-04-30T20:56:26.090Z,0
2019-04-30T20:57:27.081Z,0
2019-04-30T20:58:24.693Z,0
2019-04-30T20:59:26.003Z,0
2019-04-30T21:00:24.669Z,0
2019-04-30T21:01:26.291Z,0
2019-04-30T21:02:28.623Z,0
2019-04-30T21:03:26.580Z,0
2019-04-30T21:04:27.606Z,0
2019-04-30T21:05:24.801Z,0
2019-04-30T21:06:26.667Z,0
2019-04-30T21:07:26.186Z,0
2019-04-30T21:08:24.878Z,0
2019-04-30T21:09:24.408Z,0
2019-04-30T21:10:26.799Z,0
2019-04-30T21:11:25.980Z,0
2019-04-30T21:12:25.753Z,0
2019-04-30T21:13:26.288Z,0
2019-04-30T21:14:26.248Z,0
2019-04-30T21:15:26.532Z,0
2019-04-30T21:16:25.994Z,0
2019-04-30T21:17:24.332Z,0
2019-04-30T21:18:26.280Z,0
2019-04-30T21:19:24.814Z,0
2019-04-30T21:20:26.338Z,0
2019-04-30T21:21:28.713Z,0
2019-04-30T21:22:29.440Z,0
2019-04-30T21:23:26.167Z,0
2019-04-30T21:24:24.366Z,0
2019-04-30T21:25:25.806Z,0
2019-04-30T21:26:26.775Z,0
2019-04-30T21:27:24.331Z,0
2019-04-30T21:28:26.434Z,0
2019-04-30T21:29:26.019Z,0
2019-04-30T21:30:24.306Z,0
2019-04-30T21:31:24.477Z,0
2019-04-30T21:32:26.511Z,0
2019-04-30T21:33:26.683Z,0
2019-04-30T21:34:26.831Z,0
2019-04-30T21:35:24.373Z,0
2019-04-30T21:36:25.918Z,0
2019-04-30T21:37:24.472Z,0
2019-04-30T21:38:26.161Z,0
2019-04-30T21:39:24.777Z,0
2019-04-30T21:40:26.462Z,0
2019-04-30T21:41:26.473Z,0
2019-04-30T21:42:24.239Z,0
2019-04-30T21:43:24.682Z,0
2019-04-30T21:44:24.424Z,0
2019-04-30T21:45:24.171Z,0
2019-04-30T21:46:26.180Z,0
2019-04-30T21:47:24.424Z,0
2019-04-30T21:48:26.115Z,0
2019-04-30T21:49:24.394Z,0
2019-04-30T21:50:26.309Z,0
2019-04-30T21:51:26.525Z,0
2019-04-30T21:52:24.389Z,0
2019-04-30T21:53:26.457Z,0
2019-04-30T21:54:24.129Z,0
2019-04-30T21:55:26.671Z,0
2019-04-30T21:56:24.113Z,0
2019-04-30T21:57:24.355Z,0
2019-04-30T21:58:29.045Z,0
2019-04-30T21:59:32.759Z,0
2019-04-30T22:00:25.682Z,0
2019-04-30T22:01:24.492Z,0
2019-04-30T22:02:24.584Z,0
2019-04-30T22:03:26.823Z,0
2019-04-30T22:04:24.305Z,0
2019-04-30T22:05:24.595Z,0
2019-04-30T22:06:29.555Z,0
2019-04-30T22:07:26.596Z,0
2019-04-30T22:08:25.327Z,0
2019-04-30T22:09:24.515Z,0
2019-04-30T22:10:24.282Z,0
2019-04-30T22:11:30.265Z,0
2019-04-30T22:12:26.087Z,0
2019-04-30T22:13:25.192Z,0
2019-04-30T22:14:23.750Z,0
2019-04-30T22:15:24.235Z,0
2019-04-30T22:16:26.957Z,0
2019-04-30T22:17:26.202Z,0
2019-04-30T22:18:23.732Z,0
2019-04-30T22:19:23.972Z,0
2019-04-30T22:20:25.994Z,0
2019-04-30T22:21:24.455Z,0
2019-04-30T22:22:26.378Z,0
2019-04-30T22:23:24.218Z,0
2019-04-30T22:24:23.943Z,0
2019-04-30T22:25:26.490Z,0
2019-04-30T22:26:24.224Z,0
2019-04-30T22:27:24.683Z,0
2019-04-30T22:28:23.653Z,0
2019-04-30T22:29:42.128Z,0
2019-04-30T22:30:23.901Z,0
2019-04-30T22:31:24.373Z,0
2019-04-30T22:32:24.144Z,0
2019-04-30T22:33:26.008Z,0
2019-04-30T22:34:23.886Z,0
2019-04-30T22:35:24.122Z,0
2019-04-30T22:36:25.563Z,0
2019-04-30T22:37:26.788Z,0
2019-04-30T22:38:25.461Z,0
2019-04-30T22:39:24.850Z,0
2019-04-30T22:40:29.021Z,0
2019-04-30T22:41:24.345Z,0
2019-04-30T22:42:26.232Z,0
2019-04-30T22:43:23.836Z,0
2019-04-30T22:44:23.561Z,0
2019-04-30T22:45:24.057Z,0
2019-04-30T22:46:24.048Z,0
2019-04-30T22:47:24.033Z,0
2019-04-30T22:48:25.374Z,0
2019-04-30T22:49:24.278Z,0
2019-04-30T22:50:24.043Z,0
2019-04-30T22:51:24.043Z,0
2019-04-30T22:52:26.455Z,0
2019-04-30T22:53:24.001Z,0
2019-04-30T22:54:24.256Z,0
2019-04-30T22:55:23.771Z,0
2019-04-30T22:56:23.768Z,0
2019-04-30T22:57:23.749Z,0
2019-04-30T22:58:23.981Z,0
2019-04-30T22:59:23.513Z,0
2019-04-30T23:00:23.998Z,0
2019-04-30T23:01:23.724Z,0
2019-04-30T23:02:23.449Z,0
2019-04-30T23:03:23.940Z,0
2019-04-30T23:04:23.712Z,0
2019-04-30T23:05:23.933Z,0
2019-04-30T23:06:23.734Z,0
2019-04-30T23:07:23.696Z,0
2019-04-30T23:08:23.646Z,0
2019-04-30T23:09:23.889Z,0
2019-04-30T23:10:23.655Z,0
2019-04-30T23:11:23.712Z,0
2019-04-30T23:12:23.659Z,0
2019-04-30T23:13:23.739Z,0
2019-04-30T23:14:23.658Z,0
2019-04-30T23:15:24.118Z,0
2019-04-30T23:16:23.849Z,0
2019-04-30T23:17:23.853Z,0
2019-04-30T23:18:23.859Z,0
2019-04-30T23:19:23.842Z,0
2019-04-30T23:20:23.846Z,0
2019-04-30T23:21:23.893Z,0
2019-04-30T23:22:23.567Z,0
2019-04-30T23:23:23.870Z,0
2019-04-30T23:24:23.574Z,0
2019-04-30T23:25:24.067Z,0
2019-04-30T23:26:23.556Z,0
2019-04-30T23:27:23.795Z,0
2019-04-30T23:28:23.776Z,0
2019-04-30T23:29:24.013Z,0
2019-04-30T23:30:23.788Z,0
2019-04-30T23:31:23.837Z,0
2019-04-30T23:32:24.005Z,0
2019-04-30T23:33:24.008Z,0
2019-04-30T23:34:24.935Z,0
2019-04-30T23:35:23.749Z,0
2019-04-30T23:36:23.562Z,0
2019-04-30T23:37:23.734Z,0
2019-04-30T23:38:24.328Z,0
2019-04-30T23:39:23.723Z,0
2019-04-30T23:40:23.460Z,0
2019-04-30T23:41:23.789Z,0
2019-04-30T23:42:23.197Z,0
2019-04-30T23:43:23.679Z,0
2019-04-30T23:44:23.439Z,0
2019-04-30T23:45:23.441Z,0
2019-04-30T23:46:23.443Z,0
2019-04-30T23:47:23.906Z,0
2019-04-30T23:48:23.661Z,0
2019-04-30T23:49:23.405Z,0
2019-04-30T23:50:23.894Z,0
2019-04-30T23:51:23.705Z,0
2019-04-30T23:52:23.118Z,0
2019-04-30T23:53:23.419Z,0
2019-04-30T23:54:23.355Z,0
2019-04-30T23:55:23.351Z,0
2019-04-30T23:56:23.687Z,0
2019-04-30T23:57:23.593Z,0
2019-04-30T23:58:23.605Z,0
2019-04-30T23:59:23.590Z,0
